RNTRENTON MUNI
METARs for airports near RNT, sorted by distance:
N 0 nm 32' KRNT 171553Z 17007KT 10SM -RA OVC017 12/08 A3004
NW 4 nm 21' KBFI 171553Z 18009KT 10SM OVC013 13/08 A3004
SW 4 nm 432' KSEA 171553Z 18006KT 10SM BKN011 OVC050 11/07 A3003
SW 20 nm 294' KTIW 171553Z 19005KT 10SM OVC015 11/09 A3004
W 22 nm 444' KPWT 171603Z 00000KT 10SM OVC007 A3004
S 23 nm 537' KPLU 171615Z VRB03KT 10SM FEW020 SCT025 OVC060 12/09 A3005
SW 23 nm 322' KTCM 171505Z 20003KT 10SM FEW016 SCT022 OVC070 11/08 A3003
N 25 nm 606' KPAE 171553Z 23004KT 10SM BKN008 BKN011 OVC032 12/09 A3003
SW 28 nm 301' KGRF 171555Z 15005KT 10SM OVC023 13/09 A3001
N 40 nm 141' KAWO 171556Z 13010KT 10SM FEW010 OVC018 10/09 A3003
SW 40 nm 272' KSHN 171553Z 35004KT 10SM FEW110 11/08 A3000
SW 42 nm 207' KOLM 171612Z 20006KT 10SM FEW026 OVC032 13/09 A3004
N 54 nm 47' KNUW 171553Z 28006KT 10SM SCT015 BKN025 BKN035 10/10 A3001
SW 58 nm 177' KCLS 171615Z VRB05KT 10SM BKN023 OVC028 12/11 A3007
N 59 nm 145' KBVS 171615Z 00000KT 10SM BKN005 BKN024 11/11 A3002
NW 62 nm 13' KNOW 171615Z 29006KT 10SM CLR 13/10 A3002
NW 64 nm 291' KCLM 171553Z 30008KT 10SM CLR 14/09 A3001
NW 69 nm 112' KFHR 171553Z 25004KT 10SM OVC060 15/08 A3001
E 74 nm 1763' KELN 171553Z 30025G33KT 10SM OVC095 13/03 A2990
SW 76 nm 17' KHQM 171553Z 29012G18KT 10SM FEW025 OVC030 12/09 A3007
N 78 nm 34' KORS 171615Z 00000KT 10SM FEW021 OVC050 13/10 A3000
N 79 nm 171' KBLI 171553Z 17005KT 10SM SCT015 BKN025 OVC040 12/10 A3000
E 81 nm 1248' KEAT 171555Z 30014KT 10SM SCT070 OVC085 14/03 A2988
NW 84 nm 64' CYYJ 171600Z 26004KT 250V320 30SM BKN063 13/09 A3000
S 87 nm 20' KKLS 171556Z 14007KT 10SM FEW016 BKN028 OVC032 11/08 A3010
SE 88 nm 1098' KYKM 171553Z 32008KT 10SM OVC085 14/03 A2992
W 98 nm 194' KUIL 171553Z 27004KT 10SM FEW015 OVC023 12/10 A3005
TAFs for airports near RNT, sorted by distance:
NW 4 nm 21' KBFI TAF KBFI 171120Z 1712/1812 18005KT P6SM OVC050
  TEMPO 1712/1716 -SHRA OVC020
  FM172100 22008KT P6SM BKN050
  FM180400 VRB03KT P6SM OVC050
SW 4 nm 432' KSEA KSEA 171300Z 1713/1818 21006KT P6SM VCSH SCT020 OVC050
  TEMPO 1713/1716 -SHRA OVC010
  FM172000 22010KT P6SM BKN040
  FM180400 20008KT P6SM OVC040
W 22 nm 444' KPWT TAF
  AMD KPWT 171257Z 1713/1812 20004KT P6SM BKN050
  TEMPO 1713/1716 -SHRA OVC003
  FM172000 21009KT P6SM BKN030 BKN050
  FM180400 17006KT P6SM OVC030
  FM180800 VRB03KT P6SM OVC020
SW 23 nm 322' KTCM TAF KTCM 171300Z 1713/1819 19006KT 9999 OVC050 620606 QNH3000INS
  TEMPO 1713/1715 BKN015
  BECMG 1716/1717 21006KT 9999 BKN025 OVC050 620601 QNH3001INS
  BECMG 1720/1721 24010G15KT 9999 VCSH BKN040 610603 QNH3001INS
  BECMG 1723/1724 24010G15KT 9999 NSW BKN050 620603 QNH3001INS
  TEMPO 1800/1803 24012G20KT
  BECMG 1804/1805 22010KT 9999 BKN020 620603 QNH3004INS TX18/1721Z TN09/1809Z
N 25 nm 606' KPAE TAF KPAE 171120Z 1712/1812 18007KT P6SM VCSH SCT010 BKN030
  TEMPO 1712/1716 -SHRA OVC007
  FM172100 33006KT P6SM BKN030 OVC050
  FM180600 VRB05KT P6SM BKN050
SW 28 nm 301' KGRF TAF KGRF 171300Z 1713/1819 13006KT 8000 BR SCT008 BKN012 OVC090 QNH2997INS
  BECMG 1715/1716 22006KT 9999 NSW BKN020 QNH2999INS
  BECMG 1718/1719 24009KT 9999 BKN030 QNH2999INS
  TEMPO 1722/1804 25012G20KT
  BECMG 1805/1806 13006KT 9999 BKN015 OVC045 QNH3003INS
  BECMG 1816/1817 24006KT 9999 OVC020 QNH3006INS TX19/1722Z TN08/1713Z
SW 42 nm 207' KOLM TAF KOLM 171120Z 1712/1812 VRB05KT P6SM SCT040 BKN060
  FM171500 21008KT P6SM OVC025
  FM171900 23011KT P6SM SCT030 OVC050
  FM180300 23006KT P6SM BKN050
  FM180700 VRB04KT P6SM OVC030
N 54 nm 47' KNUW TAF KNUW 1715/1815 22008KT 9999 VCSH FEW015 BKN025 BKN035 QNH2996INS
  TEMPO 1715/1719 VRB06KT 8000 -SHRA BR SCT003 BKN010 OVC020
  FM172000 VRB06KT 9999 VCSH FEW015 SCT025 BKN040 BKN150 QNH3000INS
  FM180000 21010G15KT 9999 FEW030 BKN060 BKN150 BKN200 QNH3002INS
  FM181000 23009KT 9999 FEW020 SCT030 SCT200 QNH3002INS TX15/1722Z TN08/1812Z FS30028
NW 64 nm 291' KCLM TAF KCLM 171120Z 1712/1812 27008KT P6SM OVC060
  FM171600 30012KT P6SM OVC030
  FM172100 32015G24KT P6SM OVC050
  FM180400 28008KT P6SM BKN050
SW 76 nm 17' KHQM TAF KHQM 171120Z 1712/1812 30008KT P6SM OVC025
  FM172100 26015G24KT P6SM SCT025 OVC035
  FM180400 27007KT P6SM OVC025
N 79 nm 171' KBLI TAF KBLI 171120Z 1712/1812 14004KT P6SM SCT025 BKN040
  FM171400 18007KT P6SM OVC025
  FM172100 17010KT P6SM SCT025 OVC050
  FM180400 17005KT P6SM OVC050
E 81 nm 1248' KEAT TAF KEAT 171129Z 1712/1812 33007KT P6SM SKC
  FM171800 30015G22KT P6SM SCT080
  FM180000 30020G28KT P6SM SCT200
  FM180600 30014KT P6SM BKN250
SE 88 nm 1098' KYKM TAF KYKM 171120Z 1712/1812 32006KT P6SM SCT250
  FM171900 31012G20KT P6SM SCT070 SCT250
  FM180400 32007KT P6SM SKC

Shortcut to this page: http://wxbay.com.

Data may contain errors.